ITY3232 VOHS-VABB
Flight info
| Callsign | ITY3232 |
|---|---|
| Flight time | 0h 58m |
| Altitude | 38000 |
| Route | HIA DCT PPN DCT BBB |
| Aircraft | A20N/M-SDE2E3FGHIRWXY/LB1 |
Departure
| Time | 2026-04-25 08:43 |
|---|---|
| Airport | Rajiv Gandhi International Airport (VOHS) |
Arrival
| Time | 2026-04-25 09:41 |
|---|---|
| Airport | Chhatrapati Shivaji Maharaj International Airport (VABB) |
| Time | Latitude | Longitude | Altitude | Speed | Heading |
|---|---|---|---|---|---|
| 2026-04-25 07:58 | 17.23421 | 78.43123 | 1979 ft | 0 kts | 0° |
| 2026-04-25 08:30 | 17.23404 | 78.43123 | 1981 ft | 4 kts | 0° |
| 2026-04-25 08:30 | 17.23377 | 78.43123 | 1983 ft | 4 kts | 2° |
| 2026-04-25 08:31 | 17.23352 | 78.43121 | 1981 ft | 3 kts | 11° |
| 2026-04-25 08:31 | 17.23340 | 78.43117 | 1981 ft | 2 kts | 41° |
| 2026-04-25 08:31 | 17.23333 | 78.43108 | 1981 ft | 2 kts | 80° |
| 2026-04-25 08:31 | 17.23332 | 78.43097 | 1982 ft | 2 kts | 87° |
| 2026-04-25 08:32 | 17.23332 | 78.43096 | 1982 ft | 0 kts | 87° |
| 2026-04-25 08:37 | 17.23332 | 78.43099 | 1979 ft | 2 kts | 87° |
| 2026-04-25 08:37 | 17.23332 | 78.43129 | 1979 ft | 7 kts | 90° |
| 2026-04-25 08:38 | 17.23296 | 78.43159 | 1981 ft | 10 kts | 164° |
| 2026-04-25 08:38 | 17.23205 | 78.43162 | 1981 ft | 16 kts | 184° |
| 2026-04-25 08:38 | 17.23099 | 78.43174 | 1981 ft | 15 kts | 142° |
| 2026-04-25 08:38 | 17.23088 | 78.43294 | 1978 ft | 20 kts | 87° |
| 2026-04-25 08:39 | 17.23089 | 78.43459 | 1979 ft | 25 kts | 89° |
| 2026-04-25 08:39 | 17.23092 | 78.43655 | 1980 ft | 29 kts | 89° |
| 2026-04-25 08:39 | 17.23097 | 78.43881 | 1979 ft | 33 kts | 90° |
| 2026-04-25 08:39 | 17.23098 | 78.44130 | 1983 ft | 33 kts | 89° |
| 2026-04-25 08:40 | 17.23103 | 78.44376 | 1980 ft | 36 kts | 87° |
| 2026-04-25 08:40 | 17.23106 | 78.44645 | 1980 ft | 38 kts | 88° |
| 2026-04-25 08:40 | 17.23107 | 78.44883 | 1982 ft | 17 kts | 103° |
| 2026-04-25 08:40 | 17.23027 | 78.44926 | 1980 ft | 0 kts | 178° |
| 2026-04-25 08:41 | 17.23016 | 78.44927 | 1983 ft | 5 kts | 178° |
| 2026-04-25 08:42 | 17.22960 | 78.44928 | 1980 ft | 11 kts | 178° |
| 2026-04-25 08:42 | 17.22906 | 78.44888 | 1981 ft | 0 kts | 265° |
| 2026-04-25 08:42 | 17.22906 | 78.44884 | 1981 ft | 8 kts | 265° |
| 2026-04-25 08:42 | 17.22901 | 78.44554 | 1981 ft | 80 kts | 269° |
| 2026-04-25 08:43 | 17.22890 | 78.43754 | 1980 ft | 136 kts | 269° |
| 2026-04-25 08:43 | 17.22878 | 78.42630 | 2194 ft | 162 kts | 272° |
| 2026-04-25 08:43 | 17.22884 | 78.41430 | 2861 ft | 172 kts | 270° |
| 2026-04-25 08:43 | 17.22851 | 78.40133 | 3445 ft | 183 kts | 268° |
| 2026-04-25 08:44 | 17.22803 | 78.38726 | 3935 ft | 204 kts | 268° |
| 2026-04-25 08:44 | 17.22752 | 78.37173 | 4220 ft | 225 kts | 268° |
| 2026-04-25 08:44 | 17.22703 | 78.35435 | 4334 ft | 259 kts | 269° |
| 2026-04-25 08:44 | 17.22667 | 78.33435 | 4591 ft | 290 kts | 269° |
| 2026-04-25 08:45 | 17.22854 | 78.31329 | 5502 ft | 286 kts | 285° |
| 2026-04-25 08:45 | 17.23568 | 78.29424 | 6675 ft | 280 kts | 295° |
| 2026-04-25 08:45 | 17.24316 | 78.27510 | 7426 ft | 289 kts | 290° |
| 2026-04-25 08:45 | 17.24920 | 78.25489 | 8270 ft | 293 kts | 287° |
| 2026-04-25 08:46 | 17.25480 | 78.23428 | 9201 ft | 296 kts | 287° |
| 2026-04-25 08:46 | 17.26050 | 78.21340 | 10071 ft | 300 kts | 287° |
| 2026-04-25 08:46 | 17.26655 | 78.19179 | 10516 ft | 321 kts | 287° |
| 2026-04-25 08:46 | 17.27320 | 78.16860 | 10782 ft | 345 kts | 287° |
| 2026-04-25 08:47 | 17.28032 | 78.14404 | 11358 ft | 356 kts | 287° |
| 2026-04-25 08:47 | 17.28755 | 78.11914 | 12164 ft | 360 kts | 287° |
| 2026-04-25 08:47 | 17.29494 | 78.09376 | 12948 ft | 367 kts | 287° |
| 2026-04-25 08:47 | 17.30241 | 78.06803 | 13750 ft | 372 kts | 287° |
| 2026-04-25 08:48 | 17.31098 | 78.04247 | 14500 ft | 373 kts | 297° |
| 2026-04-25 08:48 | 17.32501 | 78.01952 | 15254 ft | 375 kts | 305° |
| 2026-04-25 08:48 | 17.34017 | 77.99716 | 16054 ft | 376 kts | 305° |
| 2026-04-25 08:48 | 17.35539 | 77.97497 | 16881 ft | 376 kts | 305° |
| 2026-04-25 08:49 | 17.37067 | 77.95263 | 17620 ft | 378 kts | 304° |
| 2026-04-25 08:49 | 17.38599 | 77.93005 | 18290 ft | 382 kts | 304° |
| 2026-04-25 08:49 | 17.40139 | 77.90727 | 18858 ft | 386 kts | 304° |
| 2026-04-25 08:49 | 17.41698 | 77.88418 | 19405 ft | 390 kts | 303° |
| 2026-04-25 08:50 | 17.43250 | 77.86115 | 19977 ft | 393 kts | 303° |
| 2026-04-25 08:50 | 17.44836 | 77.83762 | 20511 ft | 397 kts | 303° |
| 2026-04-25 08:50 | 17.46435 | 77.81388 | 21076 ft | 401 kts | 302° |
| 2026-04-25 08:50 | 17.48052 | 77.78985 | 21621 ft | 405 kts | 302° |
| 2026-04-25 08:51 | 17.49679 | 77.76567 | 22167 ft | 408 kts | 302° |
| 2026-04-25 08:51 | 17.51325 | 77.74119 | 22716 ft | 412 kts | 301° |
| 2026-04-25 08:51 | 17.52982 | 77.71653 | 23239 ft | 416 kts | 301° |
| 2026-04-25 08:51 | 17.54657 | 77.69160 | 23725 ft | 419 kts | 301° |
| 2026-04-25 08:52 | 17.56337 | 77.66658 | 24232 ft | 420 kts | 301° |
| 2026-04-25 08:52 | 17.58023 | 77.64146 | 24734 ft | 422 kts | 301° |
| 2026-04-25 08:52 | 17.59716 | 77.61623 | 25211 ft | 424 kts | 301° |
| 2026-04-25 08:52 | 17.61416 | 77.59088 | 25680 ft | 426 kts | 300° |
| 2026-04-25 08:53 | 17.63127 | 77.56535 | 26131 ft | 428 kts | 300° |
| 2026-04-25 08:53 | 17.64843 | 77.53974 | 26580 ft | 430 kts | 300° |
| 2026-04-25 08:53 | 17.66567 | 77.51401 | 27030 ft | 432 kts | 300° |
| 2026-04-25 08:53 | 17.68292 | 77.48824 | 27448 ft | 434 kts | 300° |
| 2026-04-25 08:54 | 17.70038 | 77.46216 | 27871 ft | 436 kts | 300° |
| 2026-04-25 08:54 | 17.71784 | 77.43607 | 28281 ft | 438 kts | 299° |
| 2026-04-25 08:54 | 17.73539 | 77.40981 | 28681 ft | 440 kts | 299° |
| 2026-04-25 08:54 | 17.75300 | 77.38347 | 29065 ft | 442 kts | 299° |
| 2026-04-25 08:55 | 17.77067 | 77.35703 | 29442 ft | 444 kts | 299° |
| 2026-04-25 08:55 | 17.78846 | 77.33039 | 29825 ft | 446 kts | 299° |
| 2026-04-25 08:55 | 17.80631 | 77.30366 | 30166 ft | 448 kts | 299° |
| 2026-04-25 08:55 | 17.82431 | 77.27669 | 30489 ft | 451 kts | 298° |
| 2026-04-25 08:56 | 17.84236 | 77.24964 | 30813 ft | 453 kts | 298° |
| 2026-04-25 08:56 | 17.86047 | 77.22248 | 31158 ft | 455 kts | 298° |
| 2026-04-25 08:56 | 17.87861 | 77.19528 | 31577 ft | 454 kts | 298° |
| 2026-04-25 08:56 | 17.89671 | 77.16814 | 32022 ft | 453 kts | 298° |
| 2026-04-25 08:57 | 17.91475 | 77.14108 | 32443 ft | 452 kts | 298° |
| 2026-04-25 08:57 | 17.93274 | 77.11406 | 32875 ft | 451 kts | 298° |
| 2026-04-25 08:57 | 17.95066 | 77.08714 | 33299 ft | 450 kts | 298° |
| 2026-04-25 08:57 | 17.96855 | 77.06025 | 33717 ft | 448 kts | 297° |
| 2026-04-25 08:58 | 17.98641 | 77.03338 | 34098 ft | 447 kts | 297° |
| 2026-04-25 08:58 | 18.00416 | 77.00668 | 34465 ft | 445 kts | 297° |
| 2026-04-25 08:58 | 18.02183 | 76.98006 | 34811 ft | 444 kts | 297° |
| 2026-04-25 08:58 | 18.03946 | 76.95350 | 35131 ft | 443 kts | 297° |
| 2026-04-25 08:59 | 18.05704 | 76.92699 | 35464 ft | 441 kts | 297° |
| 2026-04-25 08:59 | 18.07461 | 76.90050 | 35803 ft | 440 kts | 297° |
| 2026-04-25 08:59 | 18.09206 | 76.87418 | 36126 ft | 439 kts | 297° |
| 2026-04-25 08:59 | 18.10949 | 76.84787 | 36433 ft | 438 kts | 297° |
| 2026-04-25 09:00 | 18.12687 | 76.82163 | 36752 ft | 437 kts | 297° |
| 2026-04-25 09:00 | 18.14424 | 76.79539 | 37062 ft | 436 kts | 297° |
| 2026-04-25 09:00 | 18.16153 | 76.76928 | 37355 ft | 435 kts | 297° |
| 2026-04-25 09:00 | 18.17883 | 76.74315 | 37651 ft | 434 kts | 297° |
| 2026-04-25 09:01 | 18.19606 | 76.71710 | 37900 ft | 433 kts | 297° |
| 2026-04-25 09:01 | 18.23016 | 76.66554 | 37935 ft | 431 kts | 297° |
| 2026-04-25 09:02 | 18.26462 | 76.61337 | 37934 ft | 431 kts | 297° |
| 2026-04-25 09:02 | 18.29883 | 76.56153 | 37933 ft | 431 kts | 297° |
| 2026-04-25 09:03 | 18.33307 | 76.50964 | 37933 ft | 431 kts | 297° |
| 2026-04-25 09:03 | 18.36724 | 76.45779 | 37932 ft | 431 kts | 297° |
| 2026-04-25 09:04 | 18.40145 | 76.40585 | 37935 ft | 431 kts | 297° |
| 2026-04-25 09:04 | 18.43542 | 76.35424 | 37934 ft | 431 kts | 297° |
| 2026-04-25 09:05 | 18.46982 | 76.30192 | 37929 ft | 432 kts | 297° |
| 2026-04-25 09:05 | 18.50401 | 76.24989 | 37934 ft | 432 kts | 297° |
| 2026-04-25 09:06 | 18.53800 | 76.19811 | 37933 ft | 432 kts | 297° |
| 2026-04-25 09:06 | 18.57217 | 76.14601 | 37939 ft | 432 kts | 297° |
| 2026-04-25 09:07 | 18.60080 | 76.10234 | 37935 ft | 432 kts | 297° |
| 2026-04-25 09:07 | 18.63471 | 76.05058 | 37937 ft | 431 kts | 297° |
| 2026-04-25 09:08 | 18.66883 | 75.99845 | 37936 ft | 431 kts | 297° |
| 2026-04-25 09:08 | 18.70290 | 75.94635 | 37933 ft | 431 kts | 297° |
| 2026-04-25 09:09 | 18.73694 | 75.89426 | 37934 ft | 431 kts | 297° |
| 2026-04-25 09:09 | 18.77097 | 75.84214 | 37925 ft | 431 kts | 297° |
| 2026-04-25 09:10 | 18.80494 | 75.79006 | 37926 ft | 430 kts | 297° |
| 2026-04-25 09:10 | 18.83889 | 75.73796 | 37922 ft | 430 kts | 297° |
| 2026-04-25 09:11 | 18.88970 | 75.65994 | 37918 ft | 430 kts | 297° |
| 2026-04-25 09:11 | 18.92352 | 75.60795 | 37915 ft | 429 kts | 297° |
| 2026-04-25 09:12 | 18.95714 | 75.55621 | 37912 ft | 429 kts | 297° |
| 2026-04-25 09:12 | 18.99086 | 75.50428 | 37907 ft | 429 kts | 297° |
| 2026-04-25 09:13 | 19.02463 | 75.45225 | 37905 ft | 428 kts | 297° |
| 2026-04-25 09:13 | 19.05835 | 75.40022 | 37902 ft | 428 kts | 297° |
| 2026-04-25 09:14 | 19.09180 | 75.34857 | 37902 ft | 428 kts | 297° |
| 2026-04-25 09:14 | 19.12548 | 75.29654 | 37902 ft | 428 kts | 297° |
| 2026-04-25 09:15 | 19.15911 | 75.24454 | 37891 ft | 428 kts | 297° |
| 2026-04-25 09:15 | 19.17331 | 75.21735 | 37901 ft | 417 kts | 285° |
| 2026-04-25 09:15 | 19.18119 | 75.18828 | 37891 ft | 407 kts | 273° |
| 2026-04-25 09:16 | 19.18372 | 75.12922 | 37891 ft | 401 kts | 266° |
| 2026-04-25 09:16 | 19.18506 | 75.07016 | 37896 ft | 402 kts | 267° |
| 2026-04-25 09:17 | 19.18712 | 74.98177 | 37896 ft | 402 kts | 267° |
| 2026-04-25 09:18 | 19.18846 | 74.92277 | 37432 ft | 399 kts | 266° |
| 2026-04-25 09:18 | 19.18912 | 74.89340 | 36839 ft | 399 kts | 266° |
| 2026-04-25 09:18 | 19.18977 | 74.86404 | 36157 ft | 399 kts | 266° |
| 2026-04-25 09:18 | 19.19042 | 74.83468 | 35463 ft | 400 kts | 266° |
| 2026-04-25 09:19 | 19.19107 | 74.80522 | 34774 ft | 400 kts | 266° |
| 2026-04-25 09:19 | 19.19172 | 74.77582 | 34110 ft | 400 kts | 265° |
| 2026-04-25 09:19 | 19.19237 | 74.74630 | 33294 ft | 402 kts | 265° |
| 2026-04-25 09:19 | 19.19298 | 74.71654 | 32381 ft | 406 kts | 266° |
| 2026-04-25 09:20 | 19.19359 | 74.68660 | 31430 ft | 411 kts | 266° |
| 2026-04-25 09:20 | 19.19421 | 74.65608 | 30461 ft | 417 kts | 267° |
| 2026-04-25 09:20 | 19.19484 | 74.62526 | 29565 ft | 419 kts | 267° |
| 2026-04-25 09:20 | 19.19548 | 74.59441 | 28760 ft | 418 kts | 268° |
| 2026-04-25 09:21 | 19.19612 | 74.56372 | 28001 ft | 416 kts | 268° |
| 2026-04-25 09:21 | 19.19674 | 74.53310 | 27248 ft | 415 kts | 268° |
| 2026-04-25 09:21 | 19.19734 | 74.50254 | 26504 ft | 415 kts | 268° |
| 2026-04-25 09:21 | 19.19794 | 74.47205 | 25789 ft | 414 kts | 269° |
| 2026-04-25 09:22 | 19.19853 | 74.44161 | 25086 ft | 414 kts | 269° |
| 2026-04-25 09:22 | 19.19911 | 74.41150 | 24411 ft | 414 kts | 269° |
| 2026-04-25 09:22 | 19.19969 | 74.38107 | 23751 ft | 414 kts | 270° |
| 2026-04-25 09:22 | 19.20027 | 74.35073 | 23096 ft | 412 kts | 270° |
| 2026-04-25 09:23 | 19.20086 | 74.32055 | 22491 ft | 408 kts | 270° |
| 2026-04-25 09:23 | 19.20144 | 74.29073 | 21882 ft | 404 kts | 270° |
| 2026-04-25 09:23 | 19.20200 | 74.26115 | 21259 ft | 401 kts | 270° |
| 2026-04-25 09:23 | 19.20255 | 74.23174 | 20629 ft | 399 kts | 270° |
| 2026-04-25 09:24 | 19.20309 | 74.20249 | 20022 ft | 396 kts | 270° |
| 2026-04-25 09:24 | 19.20362 | 74.17341 | 19430 ft | 394 kts | 270° |
| 2026-04-25 09:24 | 19.20415 | 74.14453 | 18847 ft | 392 kts | 271° |
| 2026-04-25 09:24 | 19.20467 | 74.11579 | 18271 ft | 390 kts | 271° |
| 2026-04-25 09:25 | 19.20518 | 74.08706 | 17639 ft | 388 kts | 271° |
| 2026-04-25 09:25 | 19.20569 | 74.05868 | 17073 ft | 384 kts | 271° |
| 2026-04-25 09:25 | 19.20619 | 74.03052 | 16490 ft | 381 kts | 271° |
| 2026-04-25 09:25 | 19.20668 | 74.00252 | 15924 ft | 379 kts | 271° |
| 2026-04-25 09:26 | 19.20716 | 73.97476 | 15378 ft | 376 kts | 271° |
| 2026-04-25 09:26 | 19.20762 | 73.94716 | 14853 ft | 373 kts | 271° |
| 2026-04-25 09:26 | 19.20809 | 73.92013 | 14351 ft | 371 kts | 271° |
| 2026-04-25 09:26 | 19.20856 | 73.89260 | 13838 ft | 368 kts | 272° |
| 2026-04-25 09:27 | 19.20902 | 73.86590 | 13296 ft | 365 kts | 271° |
| 2026-04-25 09:27 | 19.20887 | 73.83906 | 12719 ft | 364 kts | 270° |
| 2026-04-25 09:27 | 19.20854 | 73.81236 | 12141 ft | 362 kts | 270° |
| 2026-04-25 09:27 | 19.20824 | 73.78575 | 11621 ft | 360 kts | 270° |
| 2026-04-25 09:28 | 19.20795 | 73.75935 | 11082 ft | 358 kts | 270° |
| 2026-04-25 09:28 | 19.20769 | 73.73303 | 10551 ft | 357 kts | 270° |
| 2026-04-25 09:28 | 19.20749 | 73.70687 | 10142 ft | 352 kts | 270° |
| 2026-04-25 09:28 | 19.20731 | 73.68147 | 10008 ft | 338 kts | 270° |
| 2026-04-25 09:29 | 19.20590 | 73.65713 | 9896 ft | 325 kts | 262° |
| 2026-04-25 09:29 | 19.20231 | 73.63395 | 9773 ft | 312 kts | 260° |
| 2026-04-25 09:29 | 19.19868 | 73.61158 | 9433 ft | 307 kts | 260° |
| 2026-04-25 09:29 | 19.19513 | 73.58967 | 8918 ft | 306 kts | 260° |
| 2026-04-25 09:30 | 19.19094 | 73.56770 | 8455 ft | 304 kts | 256° |
| 2026-04-25 09:30 | 19.18567 | 73.54608 | 8141 ft | 301 kts | 255° |
| 2026-04-25 09:30 | 19.18034 | 73.52473 | 7742 ft | 300 kts | 255° |
| 2026-04-25 09:30 | 19.17501 | 73.50343 | 7370 ft | 299 kts | 255° |
| 2026-04-25 09:31 | 19.16964 | 73.48208 | 7001 ft | 298 kts | 255° |
| 2026-04-25 09:31 | 19.16439 | 73.46134 | 6894 ft | 286 kts | 255° |
| 2026-04-25 09:31 | 19.15939 | 73.44166 | 6763 ft | 275 kts | 255° |
| 2026-04-25 09:31 | 19.15449 | 73.42231 | 6523 ft | 271 kts | 255° |
| 2026-04-25 09:32 | 19.14962 | 73.40308 | 6242 ft | 269 kts | 255° |
| 2026-04-25 09:32 | 19.14477 | 73.38402 | 5926 ft | 268 kts | 255° |
| 2026-04-25 09:32 | 19.13988 | 73.36502 | 5661 ft | 265 kts | 255° |
| 2026-04-25 09:32 | 19.13497 | 73.34626 | 5378 ft | 264 kts | 255° |
| 2026-04-25 09:33 | 19.13004 | 73.32767 | 5111 ft | 261 kts | 255° |
| 2026-04-25 09:33 | 19.12510 | 73.30922 | 4886 ft | 260 kts | 255° |
| 2026-04-25 09:33 | 19.12020 | 73.29089 | 4627 ft | 259 kts | 255° |
| 2026-04-25 09:33 | 19.11536 | 73.27284 | 4369 ft | 257 kts | 255° |
| 2026-04-25 09:34 | 19.11044 | 73.25469 | 4135 ft | 256 kts | 255° |
| 2026-04-25 09:34 | 19.10549 | 73.23665 | 3910 ft | 255 kts | 255° |
| 2026-04-25 09:34 | 19.10050 | 73.21887 | 3797 ft | 250 kts | 255° |
| 2026-04-25 09:34 | 19.09583 | 73.20074 | 3774 ft | 259 kts | 259° |
| 2026-04-25 09:35 | 19.09348 | 73.18221 | 3778 ft | 250 kts | 267° |
| 2026-04-25 09:35 | 19.09278 | 73.16363 | 3780 ft | 255 kts | 270° |
| 2026-04-25 09:35 | 19.09252 | 73.14516 | 3784 ft | 254 kts | 270° |
| 2026-04-25 09:35 | 19.09228 | 73.12657 | 3784 ft | 254 kts | 271° |
| 2026-04-25 09:36 | 19.09204 | 73.10769 | 3620 ft | 258 kts | 270° |
| 2026-04-25 09:36 | 19.09177 | 73.08904 | 3441 ft | 246 kts | 271° |
| 2026-04-25 09:36 | 19.09154 | 73.07150 | 3330 ft | 233 kts | 271° |
| 2026-04-25 09:36 | 19.09129 | 73.05461 | 3076 ft | 225 kts | 271° |
| 2026-04-25 09:37 | 19.09108 | 73.03845 | 2837 ft | 216 kts | 271° |
| 2026-04-25 09:37 | 19.09087 | 73.02304 | 2583 ft | 203 kts | 271° |
| 2026-04-25 09:37 | 19.09065 | 73.00894 | 2381 ft | 180 kts | 272° |
| 2026-04-25 09:37 | 19.09046 | 72.99625 | 2139 ft | 164 kts | 273° |
| 2026-04-25 09:38 | 19.09032 | 72.98484 | 1932 ft | 149 kts | 272° |
| 2026-04-25 09:38 | 19.09016 | 72.97441 | 1760 ft | 135 kts | 275° |
| 2026-04-25 09:38 | 19.09004 | 72.96479 | 1600 ft | 131 kts | 274° |
| 2026-04-25 09:38 | 19.08992 | 72.95495 | 1431 ft | 134 kts | 274° |
| 2026-04-25 09:39 | 19.08978 | 72.94519 | 1250 ft | 131 kts | 274° |
| 2026-04-25 09:39 | 19.08965 | 72.93567 | 1090 ft | 131 kts | 274° |
| 2026-04-25 09:39 | 19.08952 | 72.92591 | 940 ft | 132 kts | 273° |
| 2026-04-25 09:40 | 19.08926 | 72.90747 | 634 ft | 119 kts | 270° |
| 2026-04-25 09:40 | 19.08915 | 72.89864 | 480 ft | 122 kts | 269° |
| 2026-04-25 09:40 | 19.08903 | 72.88959 | 334 ft | 124 kts | 272° |
| 2026-04-25 09:40 | 19.08890 | 72.88046 | 164 ft | 124 kts | 271° |
| 2026-04-25 09:41 | 19.08875 | 72.87143 | 55 ft | 120 kts | 271° |
| 2026-04-25 09:41 | 19.08868 | 72.86408 | 48 ft | 74 kts | 269° |
| 2026-04-25 09:41 | 19.08881 | 72.85981 | 47 ft | 44 kts | 287° |
| 2026-04-25 09:41 | 19.08965 | 72.85810 | 47 ft | 7 kts | 301° |
| 2026-04-25 09:42 | 19.08987 | 72.85771 | 48 ft | 0 kts | 300° |
| 2026-04-25 09:45 | 19.08996 | 72.85763 | 48 ft | 4 kts | 324° |
| 2026-04-25 09:45 | 19.09021 | 72.85775 | 48 ft | 7 kts | 41° |
| 2026-04-25 09:46 | 19.09030 | 72.85839 | 48 ft | 13 kts | 83° |
| 2026-04-25 09:46 | 19.09035 | 72.85963 | 48 ft | 20 kts | 92° |
| 2026-04-25 09:46 | 19.09034 | 72.86116 | 48 ft | 2 kts | 88° |
| 2026-04-25 09:47 | 19.09035 | 72.86132 | 48 ft | 6 kts | 88° |
| 2026-04-25 09:47 | 19.09037 | 72.86206 | 48 ft | 14 kts | 89° |
| 2026-04-25 09:47 | 19.09054 | 72.86330 | 48 ft | 20 kts | 54° |
| 2026-04-25 09:47 | 19.09163 | 72.86455 | 48 ft | 26 kts | 46° |
| 2026-04-25 09:48 | 19.09282 | 72.86603 | 49 ft | 28 kts | 49° |
| 2026-04-25 09:48 | 19.09405 | 72.86749 | 49 ft | 18 kts | 47° |
| 2026-04-25 09:48 | 19.09424 | 72.86810 | 49 ft | 7 kts | 101° |
| 2026-04-25 09:48 | 19.09374 | 72.86870 | 48 ft | 14 kts | 137° |
| 2026-04-25 09:49 | 19.09313 | 72.86933 | 49 ft | 13 kts | 134° |
| 2026-04-25 09:49 | 19.09304 | 72.86956 | 49 ft | 3 kts | 78° |
| 2026-04-25 09:49 | 19.09324 | 72.87004 | 47 ft | 11 kts | 60° |
| 2026-04-25 09:49 | 19.09347 | 72.87046 | 49 ft | 3 kts | 61° |